Covell, Illinois
Current Conditions -  °F | °C
As of 9:56 AM on Thursday 23 Oct 2014 (Local Time) from KBMI Reporting Station
Clear Clear  
Wind Chill: 45°   Ceiling: Unl
Heat Index: 49°   Visibility: 10mi
Dew Point: 44°   Wind: 10mph
Humidity: 83%   Direction: 180°S
Pressure: 30.22"   Gusts: NA
Location:  40.4664°N, 88.9822°W
Report Text: KBMI 231456Z 18009KT 10SM CLR 09/07 A3022 RMK AO2 50002 60000 T00940066 RAE08 P0000 SLP241
Loading
Personal Weather Stations






























Interactive Weather Map
Tropical Storm Tracking
New forecast layout! Learn more

10-Day Weather Forecast

Advertisements
Track Severe Weather on mobile